Terminal Aerodrome Forecast
Issued by NWS Albany, NY

Home | Current Version | Previous Version | Text Only | Print | Product List | Glossary On
Versions: 1 2 3 4 5 6 7 8 9 10 11 12 13 14 15 16 17 18 19
000
FTUS41 KALY 220500
TAFPOU
TAF
KPOU 220533Z 2206/2306 26006KT P6SM VCSH SCT040 BKN070
     FM221000 28010KT P6SM SCT025 BKN050
      TEMPO 2210/2214 BKN025
     FM221500 30012G20KT P6SM BKN050
     FM222300 30006KT P6SM FEW050=

USA.gov is the U.S. government's official web portal to all federal, state and local government web resources and services.